Cape Romanzof LRRS, AK

11:47 PM AKDT on October 25, 2014 (GMT -0800)
Hooper Bay | Change Station
CLOSE
Current Station
Airport
Location: Hooper Bay,
Elevation: 16 ft
Nearby Weather Stations

Elev 16 ft 61.52 °N, 166.15 °W | Updated 11 minutes ago

Clear
Clear
36 °F
Feels Like 27 °F
N
14
Wind Variable Wind from SW

Today
High -- | Low -- °F
--% Chance of Precip.
Yesterday
High -- | Low -- °F
Precip. -- in
10:15 AM 7:19 PM
Waxing Crescent, 6% visible
Pressure 29.79 in
Visibility 10.0 miles
Clouds Clear
Windchill 27 °F
Dew Point 30 °F
Humidity 81%
Rainfall 0.27 in
Snow Depth Not available.
UV 0 out of 12
Pollen Not available.
Air Quality Not available.
Flu Activity Local Activity
METAR PAHP 260736Z AUTO 23012KT 10SM CLR 02/M01 A2979 RMK AO1

More Conditions Fewer Conditions

Pressure 29.79 in
Visibility 10.0 miles
Clouds Clear
Windchill 27 °F
Dew Point 30 °F
Humidity 81%
Rainfall 0.27 in
Snow Depth Not available.
UV 0 out of 12
Pollen Not available.
Air Quality Not available.
Flu Activity Local Activity
METAR PAHP 260736Z AUTO 23012KT 10SM CLR 02/M01 A2979 RMK AO1

More Conditions Fewer Conditions

10-Day Weather Forecast

Almanac

Astronomy

Oct. 25, 2014 Rise Set
Actual Time 10:15 AM AKDT 7:19 PM AKDT
Civil Twilight 9:29 AM AKDT 8:05 PM AKDT
Nautical Twilight 8:37 AM AKDT 8:57 PM AKDT
Astronomical Twilight 7:46 AM AKDT 9:48 PM AKDT
Moon 12:35 PM AKDT (10/25) 8:21 PM AKDT (10/25)
Length of Visible Light 10h 36m
Length of Day
9h 03m
Tomorrow will be 5m 45s shorter.
Waxing Crescent, 6% of the Moon is Illuminated
Oct 26
Waxing Crescent
Oct 30
First Quarter
Nov 6
Full
Nov 14
Last Quarter
Nov 22
New

Community

WunderPhotos

Upload Photos

1,765,115 photos uploaded!

Nearby

Snow Depth

Station Depth Elevation
Rocky Point 2 in 500 ft
Pargon Creek 0 in 300 ft
Mcneil Canyon 1 in 1320 ft
Port Graham 0 in 300 ft
Susitna Valley High 0 in 375 ft

Earthquake Activity

City Distance Mag. Time & Date
No recent earthquake activity has been reported nearby.
Minimum magnitude displayed is 2.5.

Coastal Water Temperatures

Place Temperature
No Stations Reporting

Nearby Weather Stations